createdAt,value
2018-12-12T00:01:40.922Z,11.37
2018-12-12T00:04:12.273Z,9.07
2018-12-12T00:06:43.600Z,5.07
2018-12-12T00:09:12.905Z,5.40
2018-12-12T00:11:42.051Z,3.00
2018-12-12T00:14:11.415Z,7.87
2018-12-12T00:16:40.859Z,5.70
2018-12-12T00:19:10.226Z,5.93
2018-12-12T00:21:39.633Z,5.83
2018-12-12T00:24:09.786Z,5.23
2018-12-12T00:26:39.267Z,5.13
2018-12-12T00:29:08.631Z,4.20
2018-12-12T00:31:37.934Z,3.13
2018-12-12T00:34:07.518Z,4.50
2018-12-12T00:36:37.281Z,10.67
2018-12-12T00:39:08.242Z,8.67
2018-12-12T00:41:37.530Z,9.40
2018-12-12T00:44:07.305Z,9.73
2018-12-12T00:46:37.063Z,7.10
2018-12-12T00:49:06.767Z,6.47
2018-12-12T00:51:36.515Z,5.87
2018-12-12T00:54:07.246Z,4.77
2018-12-12T00:56:37.015Z,7.73
2018-12-12T00:59:06.663Z,14.70
2018-12-12T01:01:36.214Z,10.83
2018-12-12T01:04:05.588Z,11.23
2018-12-12T01:06:35.242Z,12.57
2018-12-12T01:09:07.309Z,9.53
2018-12-12T01:11:41.842Z,16.80
2018-12-12T01:14:11.313Z,10.40
2018-12-12T01:16:40.589Z,9.43
2018-12-12T01:19:10.202Z,7.40
2018-12-12T01:21:39.691Z,6.33
2018-12-12T01:24:09.823Z,8.80
2018-12-12T01:26:39.332Z,5.93
2018-12-12T01:29:09.071Z,4.13
2018-12-12T01:31:38.570Z,10.63
2018-12-12T01:34:08.065Z,5.60
2018-12-12T01:36:37.339Z,6.23
2018-12-12T01:39:07.598Z,6.17
2018-12-12T01:41:37.331Z,5.93
2018-12-12T01:44:06.775Z,7.13
2018-12-12T01:46:36.290Z,6.87
2018-12-12T01:49:05.655Z,3.77
2018-12-12T01:51:35.102Z,6.07
2018-12-12T01:54:04.539Z,4.13
2018-12-12T01:56:34.179Z,3.27
2018-12-12T01:59:03.522Z,5.50
2018-12-12T02:01:33.111Z,5.93
2018-12-12T02:04:02.301Z,5.93
2018-12-12T02:06:31.595Z,6.13
2018-12-12T02:09:00.780Z,5.10
2018-12-12T02:11:31.391Z,6.10
2018-12-12T02:14:00.959Z,7.17
2018-12-12T02:16:30.268Z,6.20
2018-12-12T02:19:00.236Z,5.83
2018-12-12T02:21:29.711Z,3.60
2018-12-12T02:23:59.204Z,6.40
2018-12-12T02:26:28.726Z,5.00
2018-12-12T02:28:58.514Z,5.67
2018-12-12T02:31:28.089Z,5.77
2018-12-12T02:33:57.632Z,5.20
2018-12-12T02:36:26.922Z,9.60
2018-12-12T02:38:56.147Z,5.67
2018-12-12T02:41:25.401Z,24.73
2018-12-12T02:43:55.900Z,7.43
2018-12-12T02:46:25.303Z,5.13
2018-12-12T02:48:54.788Z,10.00
2018-12-12T02:51:24.375Z,4.93
2018-12-12T02:53:54.119Z,6.20
2018-12-12T02:56:23.320Z,6.23
2018-12-12T02:58:52.771Z,5.33
2018-12-12T03:01:22.215Z,3.23
2018-12-12T03:03:51.823Z,6.77
2018-12-12T03:06:21.074Z,5.53
2018-12-12T03:08:51.087Z,9.60
2018-12-12T03:11:24.361Z,7.93
2018-12-12T03:13:54.237Z,7.20
2018-12-12T03:16:23.852Z,8.60
2018-12-12T03:18:53.672Z,4.17
2018-12-12T03:21:23.315Z,5.60
2018-12-12T03:23:52.794Z,4.80
2018-12-12T03:26:22.431Z,8.80
2018-12-12T03:28:51.803Z,8.57
2018-12-12T03:31:21.122Z,6.37
2018-12-12T03:33:50.708Z,4.97
2018-12-12T03:36:19.971Z,5.53
2018-12-12T03:38:49.482Z,4.03
2018-12-12T03:41:19.094Z,5.60
2018-12-12T03:43:48.307Z,5.07
2018-12-12T03:46:17.640Z,5.33
2018-12-12T03:48:47.000Z,8.57
2018-12-12T03:51:16.382Z,4.37
2018-12-12T03:53:45.827Z,10.57
2018-12-12T03:56:15.313Z,8.27
2018-12-12T03:58:44.741Z,6.57
2018-12-12T04:01:14.497Z,7.07
2018-12-12T04:03:44.012Z,17.33
2018-12-12T04:06:13.279Z,17.43
2018-12-12T04:08:42.863Z,9.20
2018-12-12T04:11:12.425Z,6.93
2018-12-12T04:13:41.716Z,4.90
2018-12-12T04:16:11.263Z,4.97
2018-12-12T04:18:40.556Z,4.70
2018-12-12T04:21:10.146Z,5.37
2018-12-12T04:23:39.507Z,5.13
2018-12-12T04:26:09.405Z,4.80
2018-12-12T04:28:38.698Z,3.80
2018-12-12T04:31:08.419Z,6.13
2018-12-12T04:33:38.138Z,5.33
2018-12-12T04:36:07.584Z,5.50
2018-12-12T04:38:37.185Z,5.77
2018-12-12T04:41:06.979Z,5.60
2018-12-12T04:43:36.185Z,6.67
2018-12-12T04:46:05.458Z,4.53
2018-12-12T04:48:35.083Z,5.70
2018-12-12T04:51:04.333Z,7.03
2018-12-12T04:53:33.645Z,5.30
2018-12-12T04:56:03.030Z,6.70
2018-12-12T04:58:32.520Z,7.17
2018-12-12T05:01:01.855Z,5.30
2018-12-12T05:03:32.330Z,5.83
2018-12-12T05:06:01.709Z,5.83
2018-12-12T05:08:31.094Z,5.60
2018-12-12T05:11:00.831Z,5.00
2018-12-12T05:13:30.103Z,5.30
2018-12-12T05:15:59.435Z,10.17
2018-12-12T05:18:28.647Z,8.77
2018-12-12T05:20:58.311Z,9.23
2018-12-12T05:23:27.943Z,6.80
2018-12-12T05:25:57.323Z,10.17
2018-12-12T05:28:27.774Z,5.10
2018-12-12T05:30:57.262Z,8.20
2018-12-12T05:33:26.438Z,12.07
2018-12-12T05:35:56.186Z,9.53
2018-12-12T05:38:25.696Z,13.53
2018-12-12T05:40:55.057Z,16.70
2018-12-12T05:43:24.717Z,11.90
2018-12-12T05:45:54.118Z,34.57
2018-12-12T05:48:23.371Z,25.43
2018-12-12T05:50:53.147Z,14.47
2018-12-12T05:53:22.390Z,10.73
2018-12-12T05:55:51.586Z,10.50
2018-12-12T05:58:21.238Z,10.07
2018-12-12T06:00:50.646Z,13.27
2018-12-12T06:03:19.955Z,9.40
2018-12-12T06:05:49.548Z,12.63
2018-12-12T06:08:19.249Z,17.83
2018-12-12T06:10:49.432Z,12.50
2018-12-12T06:13:19.101Z,7.20
2018-12-12T06:15:48.421Z,7.20
2018-12-12T06:18:17.676Z,16.83
2018-12-12T06:20:47.294Z,9.80
2018-12-12T06:23:16.484Z,15.63
2018-12-12T06:25:45.790Z,14.10
2018-12-12T06:28:15.508Z,9.43
2018-12-12T06:30:46.030Z,5.80
2018-12-12T06:33:15.408Z,4.47
2018-12-12T06:35:44.842Z,6.23
2018-12-12T06:38:14.237Z,6.93
2018-12-12T06:40:43.712Z,8.47
2018-12-12T06:43:13.461Z,8.20
2018-12-12T06:45:42.847Z,6.63
2018-12-12T06:48:12.420Z,6.63
2018-12-12T06:50:42.077Z,8.00
2018-12-12T06:53:11.356Z,6.80
2018-12-12T06:55:40.545Z,7.20
2018-12-12T06:58:10.094Z,4.47
2018-12-12T07:00:39.434Z,9.63
2018-12-12T07:03:08.841Z,4.20
2018-12-12T07:05:38.726Z,5.13
2018-12-12T07:08:08.301Z,4.10
2018-12-12T07:10:37.591Z,8.10
2018-12-12T07:13:07.447Z,4.70
2018-12-12T07:15:36.800Z,11.60
2018-12-12T07:18:06.309Z,7.83
2018-12-12T07:20:35.471Z,6.27
2018-12-12T07:23:04.667Z,5.57
2018-12-12T07:25:34.118Z,3.90
2018-12-12T07:28:03.640Z,4.10
2018-12-12T07:30:32.914Z,5.43
2018-12-12T07:33:03.478Z,4.43
2018-12-12T07:35:32.711Z,4.03
2018-12-12T07:38:02.058Z,6.33
2018-12-12T07:40:32.739Z,4.43
2018-12-12T07:43:04.283Z,5.07
2018-12-12T07:45:54.981Z,6.57
2018-12-12T07:48:26.772Z,4.90
2018-12-12T07:51:14.412Z,12.00
2018-12-12T07:53:49.108Z,8.03
2018-12-12T07:56:18.815Z,10.80
2018-12-12T07:58:48.122Z,4.07
2018-12-12T08:01:17.476Z,5.10
2018-12-12T08:03:47.240Z,5.10
2018-12-12T08:06:16.504Z,4.50
2018-12-12T08:08:45.783Z,4.43
2018-12-12T08:11:15.622Z,8.23
2018-12-12T08:13:44.858Z,4.03
2018-12-12T08:16:14.957Z,4.97
2018-12-12T08:18:44.363Z,3.50
2018-12-12T08:21:13.872Z,5.93
2018-12-12T08:23:43.408Z,8.23
2018-12-12T08:26:12.675Z,5.20
2018-12-12T08:28:41.954Z,9.23
2018-12-12T08:31:11.546Z,13.10
2018-12-12T08:33:40.745Z,15.80
2018-12-12T08:36:09.970Z,9.73
2018-12-12T08:38:39.263Z,10.93
2018-12-12T08:41:08.556Z,4.53
2018-12-12T08:43:37.807Z,5.10
2018-12-12T08:46:07.396Z,3.80
2018-12-12T08:48:36.874Z,5.20
2018-12-12T08:51:06.315Z,7.63
2018-12-12T08:53:35.607Z,6.83
2018-12-12T08:56:04.963Z,4.13
2018-12-12T08:58:34.303Z,4.60
2018-12-12T09:01:03.560Z,6.27
2018-12-12T09:03:32.993Z,7.87
2018-12-12T09:06:02.419Z,8.83
2018-12-12T09:08:32.188Z,5.67
2018-12-12T09:11:01.824Z,5.87
2018-12-12T09:13:31.393Z,5.97
2018-12-12T09:16:01.080Z,12.67
2018-12-12T09:18:30.693Z,13.10
2018-12-12T09:21:00.292Z,16.10
2018-12-12T09:23:30.069Z,7.50
2018-12-12T09:25:59.448Z,9.83
2018-12-12T09:28:28.850Z,19.60
2018-12-12T09:31:00.617Z,6.77
2018-12-12T09:33:32.322Z,7.63
2018-12-12T09:36:04.171Z,7.30
2018-12-12T09:38:33.438Z,7.70
2018-12-12T09:41:03.055Z,6.40
2018-12-12T09:43:32.864Z,4.37
2018-12-12T09:46:02.649Z,7.57
2018-12-12T09:48:31.984Z,8.53
2018-12-12T09:51:07.135Z,4.53
2018-12-12T09:53:35.341Z,7.23
2018-12-12T09:56:05.236Z,20.17
2018-12-12T09:58:34.864Z,11.70
2018-12-12T10:01:04.762Z,13.40
2018-12-12T10:03:34.308Z,9.37
2018-12-12T10:06:03.621Z,3.53
2018-12-12T10:08:33.604Z,8.33
2018-12-12T10:11:03.247Z,6.97
2018-12-12T10:13:32.972Z,5.73
2018-12-12T10:16:02.614Z,4.50
2018-12-12T10:18:32.387Z,4.63
2018-12-12T10:21:02.425Z,10.30
2018-12-12T10:23:31.677Z,13.37
2018-12-12T10:26:01.301Z,12.03
2018-12-12T10:28:31.251Z,8.73
2018-12-12T10:31:00.988Z,34.43
2018-12-12T10:33:30.707Z,14.57
2018-12-12T10:36:00.130Z,10.63
2018-12-12T10:38:29.609Z,7.83
2018-12-12T10:40:58.991Z,4.70
2018-12-12T10:43:28.826Z,12.63
2018-12-12T10:45:58.493Z,6.23
2018-12-12T10:48:28.102Z,7.37
2018-12-12T10:50:58.147Z,5.30
2018-12-12T10:53:27.737Z,10.93
2018-12-12T10:55:57.480Z,9.23
2018-12-12T10:58:27.051Z,11.17
2018-12-12T11:01:01.716Z,9.77
2018-12-12T11:03:35.484Z,12.97
2018-12-12T11:06:05.147Z,8.50
2018-12-12T11:08:35.924Z,7.10
2018-12-12T11:11:05.599Z,14.93
2018-12-12T11:13:35.105Z,10.73
2018-12-12T11:16:05.281Z,13.03
2018-12-12T11:18:35.220Z,7.93
2018-12-12T11:21:05.012Z,18.57
2018-12-12T11:23:34.277Z,12.27
2018-12-12T11:26:03.909Z,11.13
2018-12-12T11:28:33.858Z,10.67
2018-12-12T11:31:03.479Z,7.57
2018-12-12T11:33:32.915Z,6.70
2018-12-12T11:36:02.767Z,11.83
2018-12-12T11:38:32.036Z,9.90
2018-12-12T11:41:01.441Z,8.73
2018-12-12T11:43:31.084Z,18.23
2018-12-12T11:46:00.459Z,12.47
2018-12-12T11:48:29.923Z,15.83
2018-12-12T11:50:59.613Z,10.50
2018-12-12T11:53:29.366Z,8.73
2018-12-12T11:55:59.210Z,8.20
2018-12-12T11:58:29.050Z,12.53
2018-12-12T12:00:58.425Z,13.47
2018-12-12T12:03:28.460Z,9.87
2018-12-12T12:05:58.038Z,10.07
2018-12-12T12:08:27.492Z,9.40
2018-12-12T12:10:57.272Z,10.80
2018-12-12T12:13:28.568Z,14.93
2018-12-12T12:15:58.201Z,16.97
2018-12-12T12:18:27.638Z,10.90
2018-12-12T12:20:57.114Z,4.33
2018-12-12T12:23:27.400Z,9.43
2018-12-12T12:25:56.899Z,11.83
2018-12-12T12:28:26.525Z,4.20
2018-12-12T12:30:56.326Z,6.40
2018-12-12T12:33:25.744Z,3.73
2018-12-12T12:35:55.195Z,12.27
2018-12-12T12:38:25.049Z,11.17
2018-12-12T12:40:54.586Z,5.73
2018-12-12T12:43:23.994Z,4.10
2018-12-12T12:45:53.647Z,9.17
2018-12-12T12:48:23.170Z,10.10
2018-12-12T12:50:52.726Z,6.77
2018-12-12T12:53:22.400Z,12.10
2018-12-12T12:55:52.547Z,6.43
2018-12-12T12:58:22.915Z,9.90
2018-12-12T13:00:52.256Z,8.60
2018-12-12T13:03:21.653Z,8.70
2018-12-12T13:05:51.222Z,17.60
2018-12-12T13:08:20.556Z,11.53
2018-12-12T13:10:50.394Z,13.60
2018-12-12T13:13:19.968Z,9.70
2018-12-12T13:15:50.034Z,15.60
2018-12-12T13:18:19.346Z,9.93
2018-12-12T13:20:48.806Z,9.07
2018-12-12T13:23:18.272Z,9.30
2018-12-12T13:25:47.953Z,7.27
2018-12-12T13:28:17.232Z,12.27
2018-12-12T13:30:48.023Z,7.57
2018-12-12T13:33:17.362Z,8.97
2018-12-12T13:35:47.030Z,10.97
2018-12-12T13:38:16.657Z,7.47
2018-12-12T13:40:46.187Z,10.93
2018-12-12T13:43:15.417Z,6.53
2018-12-12T13:45:44.891Z,7.80
2018-12-12T13:48:14.166Z,9.33
2018-12-12T13:50:43.627Z,9.97
2018-12-12T13:53:13.433Z,10.93
2018-12-12T13:55:42.869Z,10.87
2018-12-12T13:58:12.628Z,13.57
2018-12-12T14:00:42.476Z,11.00
2018-12-12T14:03:11.703Z,15.90
2018-12-12T14:05:41.254Z,11.33
2018-12-12T14:08:10.835Z,14.30
2018-12-12T14:10:40.080Z,16.83
2018-12-12T14:13:09.671Z,20.50
2018-12-12T14:15:39.219Z,14.00
2018-12-12T14:18:08.631Z,12.20
2018-12-12T14:20:37.936Z,24.93
2018-12-12T14:23:07.529Z,27.77
2018-12-12T14:25:36.998Z,22.53
2018-12-12T14:28:06.401Z,23.00
2018-12-12T14:30:36.333Z,24.70
2018-12-12T14:33:05.762Z,18.80
2018-12-12T14:35:34.959Z,18.60
2018-12-12T14:38:05.300Z,18.33
2018-12-12T14:40:35.183Z,21.87
2018-12-12T14:43:04.890Z,15.63
2018-12-12T14:45:34.398Z,11.70
2018-12-12T14:48:03.805Z,23.50
2018-12-12T14:50:33.643Z,12.57
2018-12-12T14:53:03.224Z,14.00
2018-12-12T14:55:32.751Z,10.60
2018-12-12T14:58:02.151Z,23.80
2018-12-12T15:00:32.779Z,18.00
2018-12-12T15:03:02.405Z,27.60
2018-12-12T15:05:31.822Z,17.07
2018-12-12T15:08:01.393Z,14.13
2018-12-12T15:10:31.232Z,19.97
2018-12-12T15:13:00.580Z,21.10
2018-12-12T15:15:30.272Z,30.13
2018-12-12T15:18:00.092Z,32.33
2018-12-12T15:20:29.803Z,35.33
2018-12-12T15:22:59.152Z,27.27
2018-12-12T15:25:28.446Z,26.90
2018-12-12T15:27:57.815Z,23.87
2018-12-12T15:30:27.413Z,27.13
2018-12-12T15:32:57.018Z,29.57
2018-12-12T15:35:26.801Z,15.40
2018-12-12T15:37:56.438Z,27.27
2018-12-12T15:40:26.033Z,30.23
2018-12-12T15:42:55.509Z,30.23
2018-12-12T15:45:24.879Z,44.93
2018-12-12T15:47:54.482Z,36.00
2018-12-12T15:50:23.886Z,25.97
2018-12-12T15:52:53.206Z,20.23
2018-12-12T15:55:22.813Z,16.30
2018-12-12T15:57:52.189Z,17.33
2018-12-12T16:00:22.054Z,11.50
2018-12-12T16:02:51.979Z,19.33
2018-12-12T16:05:21.415Z,11.17
2018-12-12T16:07:50.860Z,14.93
2018-12-12T16:10:20.796Z,15.03
2018-12-12T16:12:50.435Z,18.93
2018-12-12T16:15:19.895Z,18.30
2018-12-12T16:17:49.326Z,18.47
2018-12-12T16:20:18.624Z,18.07
2018-12-12T16:22:47.836Z,17.30
2018-12-12T16:25:17.549Z,24.97
2018-12-12T16:27:47.290Z,31.00
2018-12-12T16:30:16.814Z,24.10
2018-12-12T16:32:46.149Z,16.93
2018-12-12T16:35:15.540Z,14.93
2018-12-12T16:37:45.262Z,34.33
2018-12-12T16:40:14.742Z,38.27
2018-12-12T16:42:44.346Z,17.63
2018-12-12T16:45:16.206Z,16.50
2018-12-12T16:47:45.822Z,21.10
2018-12-12T16:50:15.188Z,24.57
2018-12-12T16:52:44.689Z,27.03
2018-12-12T16:55:14.255Z,21.87
2018-12-12T16:57:43.683Z,23.80
2018-12-12T17:00:13.470Z,29.27
2018-12-12T17:02:43.285Z,20.63
2018-12-12T17:05:12.765Z,16.07
2018-12-12T17:07:42.067Z,21.27
2018-12-12T17:10:11.731Z,19.03
2018-12-12T17:12:41.296Z,24.33
2018-12-12T17:15:11.206Z,17.97
2018-12-12T17:17:40.909Z,15.67
2018-12-12T17:20:10.282Z,12.43
2018-12-12T17:22:39.791Z,15.10
2018-12-12T17:25:09.527Z,28.53
2018-12-12T17:27:38.926Z,23.70
2018-12-12T17:30:09.355Z,25.83
2018-12-12T17:32:38.787Z,21.03
2018-12-12T17:35:09.155Z,10.97
2018-12-12T17:37:38.926Z,9.57
2018-12-12T17:40:09.404Z,16.00
2018-12-12T17:42:38.948Z,30.60
2018-12-12T17:45:08.546Z,17.20
2018-12-12T17:47:38.199Z,21.80
2018-12-12T17:50:07.979Z,14.13
2018-12-12T17:52:37.515Z,13.93
2018-12-12T17:55:06.867Z,12.83
2018-12-12T17:57:36.428Z,8.93
2018-12-12T18:00:07.532Z,10.27
2018-12-12T18:02:38.994Z,10.50
2018-12-12T18:05:15.415Z,20.40
2018-12-12T18:07:45.032Z,17.73
2018-12-12T18:10:14.920Z,15.17
2018-12-12T18:12:44.133Z,14.87
2018-12-12T18:15:14.004Z,22.13
2018-12-12T18:17:45.367Z,18.57
2018-12-12T18:20:15.006Z,11.33
2018-12-12T18:22:44.627Z,15.50
2018-12-12T18:25:16.159Z,9.47
2018-12-12T18:27:45.707Z,19.07
2018-12-12T18:30:15.245Z,17.87
2018-12-12T18:32:47.045Z,15.13
2018-12-12T18:35:22.350Z,27.50
2018-12-12T18:37:51.851Z,25.00
2018-12-12T18:40:22.807Z,14.23
2018-12-12T18:42:54.121Z,15.63
2018-12-12T18:45:23.977Z,11.33
2018-12-12T18:47:53.433Z,10.23
2018-12-12T18:50:24.942Z,6.90
2018-12-12T18:53:15.985Z,9.00
2018-12-12T18:55:45.939Z,8.80
2018-12-12T18:58:15.221Z,5.43
2018-12-12T19:00:44.452Z,8.93
2018-12-12T19:03:14.122Z,4.60
2018-12-12T19:05:43.831Z,24.80
2018-12-12T19:08:13.388Z,10.07
2018-12-12T19:10:42.771Z,19.27
2018-12-12T19:13:12.357Z,16.30
2018-12-12T19:15:41.856Z,8.07
2018-12-12T19:18:11.580Z,7.90
2018-12-12T19:20:41.002Z,13.40
2018-12-12T19:23:10.553Z,6.30
2018-12-12T19:25:40.035Z,6.87
2018-12-12T19:28:09.653Z,7.40
2018-12-12T19:30:39.321Z,8.10
2018-12-12T19:33:08.765Z,6.97
2018-12-12T19:35:38.264Z,12.13
2018-12-12T19:38:07.875Z,4.60
2018-12-12T19:40:37.470Z,7.13
2018-12-12T19:43:06.931Z,7.23
2018-12-12T19:45:36.453Z,9.77
2018-12-12T19:48:05.664Z,6.20
2018-12-12T19:50:34.940Z,6.07
2018-12-12T19:53:04.167Z,6.93
2018-12-12T19:55:33.804Z,6.20
2018-12-12T19:58:03.192Z,6.43
2018-12-12T20:00:32.899Z,8.23
2018-12-12T20:03:02.698Z,7.70
2018-12-12T20:05:32.446Z,7.20
2018-12-12T20:08:02.045Z,7.67
2018-12-12T20:10:31.305Z,8.23
2018-12-12T20:13:01.156Z,11.40
2018-12-12T20:15:35.774Z,7.47
2018-12-12T20:18:05.095Z,6.70
2018-12-12T20:20:35.335Z,11.87
2018-12-12T20:23:05.080Z,13.67
2018-12-12T20:25:34.827Z,29.90
2018-12-12T20:28:04.388Z,25.33
2018-12-12T20:30:35.509Z,25.97
2018-12-12T20:33:05.082Z,27.20
2018-12-12T20:35:34.589Z,29.60
2018-12-12T20:38:04.154Z,26.67
2018-12-12T20:40:33.620Z,29.80
2018-12-12T20:43:03.180Z,35.57
2018-12-12T20:45:32.931Z,38.50
2018-12-12T20:48:02.356Z,43.30
2018-12-12T20:50:31.734Z,57.80
2018-12-12T20:53:01.091Z,65.40
2018-12-12T20:55:30.623Z,75.67
2018-12-12T20:58:00.307Z,63.23
2018-12-12T21:00:29.819Z,71.00
2018-12-12T21:02:59.408Z,68.50
2018-12-12T21:05:29.126Z,54.70
2018-12-12T21:07:58.511Z,62.07
2018-12-12T21:10:27.848Z,60.17
2018-12-12T21:12:57.516Z,57.33
2018-12-12T21:15:27.154Z,58.73
2018-12-12T21:17:56.467Z,54.40
2018-12-12T21:20:25.736Z,60.03
2018-12-12T21:22:56.753Z,50.93
2018-12-12T21:25:28.430Z,44.57
2018-12-12T21:27:57.876Z,46.33
2018-12-12T21:30:27.171Z,53.10
2018-12-12T21:32:56.828Z,54.53
2018-12-12T21:35:26.308Z,48.57
2018-12-12T21:37:55.831Z,47.07
2018-12-12T21:40:25.346Z,50.93
2018-12-12T21:42:54.820Z,45.03
2018-12-12T21:45:24.324Z,63.53
2018-12-12T21:47:53.756Z,51.70
2018-12-12T21:50:22.984Z,52.17
2018-12-12T21:52:52.318Z,49.70
2018-12-12T21:55:21.930Z,50.27
2018-12-12T21:57:51.344Z,42.73
2018-12-12T22:00:21.277Z,44.57
2018-12-12T22:02:50.959Z,42.33
2018-12-12T22:05:20.483Z,38.67
2018-12-12T22:07:50.073Z,37.87
2018-12-12T22:10:19.460Z,44.23
2018-12-12T22:12:48.977Z,44.13
2018-12-12T22:15:18.470Z,50.67
2018-12-12T22:17:47.959Z,38.77
2018-12-12T22:20:17.274Z,47.80
2018-12-12T22:22:46.500Z,40.67
2018-12-12T22:25:15.931Z,36.03
2018-12-12T22:27:45.403Z,24.67
2018-12-12T22:30:14.980Z,20.20
2018-12-12T22:32:44.375Z,38.17
2018-12-12T22:35:14.014Z,38.40
2018-12-12T22:37:43.587Z,54.93
2018-12-12T22:40:12.968Z,41.57
2018-12-12T22:42:42.428Z,39.87
2018-12-12T22:45:11.890Z,44.80
2018-12-12T22:47:41.240Z,32.90
2018-12-12T22:50:10.610Z,28.87
2018-12-12T22:52:40.035Z,27.60
2018-12-12T22:55:09.471Z,8.97
2018-12-12T22:57:39.042Z,4.73
2018-12-12T23:00:14.083Z,9.17
2018-12-12T23:02:44.620Z,6.57
2018-12-12T23:05:13.944Z,3.83
2018-12-12T23:07:43.523Z,6.77
2018-12-12T23:10:13.053Z,7.33
2018-12-12T23:12:42.622Z,4.40
2018-12-12T23:15:11.974Z,4.40
2018-12-12T23:17:41.249Z,6.00
2018-12-12T23:20:10.806Z,5.70
2018-12-12T23:22:40.157Z,3.80
2018-12-12T23:25:09.577Z,3.53
2018-12-12T23:27:38.982Z,5.13
2018-12-12T23:30:09.346Z,17.53
2018-12-12T23:32:38.945Z,6.63
2018-12-12T23:35:08.347Z,5.80
2018-12-12T23:37:38.004Z,4.73
2018-12-12T23:40:07.502Z,3.87
2018-12-12T23:42:36.823Z,4.93
2018-12-12T23:45:06.588Z,4.37
2018-12-12T23:47:36.066Z,3.07
2018-12-12T23:50:05.899Z,2.87
2018-12-12T23:52:36.309Z,5.23
2018-12-12T23:55:06.143Z,5.73
2018-12-12T23:57:35.510Z,6.37
